X  Schließen METAR Luftfahrt Wetterdaten     EHKD De Kooy Airport
Temperatur
61°F Temperatur
54°F Taupunkt
77% Feuchtigkeit



Wind
8 MPS
13 KM/S
4 M/S
7 KTS



330°
NNW
Aktuelle Wetterlage

Teilweise bewölkt Teilweise bewölkt
Luftdruck 1019.98 (hPa) - 30.12 (inHg)
Sichtweite 6 (Meile) - 9.7 (Km)
Flughafen
Flughafen Code EHKD

Position : De Kooy Airport
Entfernung: 34 (mi)

Metar:
EHKD 240325Z AUTO 33007KT 280V020 9999 FEW017 SCT024 16/12 Q1020 BLU

Zeit: 24-07-2024 05:25 CEST